createdAt,value
2023-05-01T00:04:00.177Z,11.20
2023-05-01T00:09:03.415Z,10.96
2023-05-01T00:14:11.467Z,11.19
2023-05-01T00:19:18.753Z,10.97
2023-05-01T00:24:22.016Z,10.81
2023-05-01T00:29:25.469Z,10.92
2023-05-01T00:34:29.237Z,11.16
2023-05-01T00:39:32.562Z,11.07
2023-05-01T00:55:34.578Z,11.19
2023-05-01T01:00:39.253Z,11.23
2023-05-01T01:06:06.038Z,11.15
2023-05-01T01:11:29.582Z,11.14
2023-05-01T01:16:45.887Z,11.16
2023-05-01T01:21:56.456Z,11.09
2023-05-01T01:27:31.181Z,11.22
2023-05-01T01:33:08.315Z,11.20
2023-05-01T01:38:21.567Z,11.19
2023-05-01T01:43:27.496Z,11.22
2023-05-01T01:48:42.601Z,11.22
2023-05-01T01:53:50.874Z,11.28
2023-05-01T01:58:57.730Z,11.23
2023-05-01T02:04:03.914Z,11.21
2023-05-01T02:09:10.083Z,11.24
2023-05-01T02:14:15.418Z,11.21
2023-05-01T02:19:21.647Z,11.19
2023-05-01T02:24:28.885Z,11.23
2023-05-01T02:29:32.558Z,11.44
2023-05-01T02:34:37.466Z,11.32
2023-05-01T02:39:41.193Z,11.28
2023-05-01T02:44:54.636Z,11.27
2023-05-01T02:49:59.750Z,11.38
2023-05-01T02:55:04.206Z,11.30
2023-05-01T03:00:12.069Z,11.32
2023-05-01T03:05:15.914Z,11.29
2023-05-01T03:10:19.846Z,11.30
2023-05-01T03:15:23.440Z,11.31
2023-05-01T03:20:27.696Z,11.26
2023-05-01T03:25:31.508Z,11.14
2023-05-01T03:30:36.581Z,11.20
2023-05-01T03:35:42.234Z,11.17
2023-05-01T03:40:46.568Z,11.14
2023-05-01T03:46:09.680Z,11.03
2023-05-01T03:51:13.916Z,11.08
2023-05-01T03:56:18.536Z,11.10
2023-05-01T04:01:22.328Z,11.11
2023-05-01T04:06:26.933Z,11.08
2023-05-01T04:11:31.898Z,11.11
2023-05-01T04:16:36.562Z,11.13
2023-05-01T04:21:41.917Z,11.16
2023-05-01T04:26:45.839Z,11.21
2023-05-01T04:31:49.894Z,11.22
2023-05-01T04:36:53.916Z,11.22
2023-05-01T04:41:58.735Z,11.28
2023-05-01T04:47:03.632Z,11.34
2023-05-01T04:52:08.529Z,11.38
2023-05-01T04:57:27.584Z,11.36
2023-05-01T05:02:33.026Z,11.43
2023-05-01T05:07:38.659Z,11.49
2023-05-01T05:13:06.409Z,11.56
2023-05-01T05:18:11.463Z,11.55
2023-05-01T05:23:15.701Z,11.56
2023-05-01T05:28:21.469Z,11.60
2023-05-01T05:33:27.326Z,11.65
2023-05-01T05:38:33.774Z,11.64
2023-05-01T05:43:41.408Z,11.77
2023-05-01T05:48:47.646Z,11.89
2023-05-01T05:53:52.657Z,11.81
2023-05-01T05:58:57.055Z,12.12
2023-05-01T06:04:01.746Z,12.12
2023-05-01T06:09:09.558Z,12.19
2023-05-01T06:14:18.867Z,12.07
2023-05-01T06:19:23.301Z,12.29
2023-05-01T06:24:33.633Z,12.22
2023-05-01T06:29:39.136Z,12.20
2023-05-01T06:34:43.401Z,12.13
2023-05-01T06:39:49.992Z,12.02
2023-05-01T06:44:54.060Z,12.02
2023-05-01T06:49:58.789Z,12.11
2023-05-01T06:55:04.830Z,11.89
2023-05-01T07:00:11.433Z,11.96
2023-05-01T07:05:16.190Z,12.16
2023-05-01T07:10:21.692Z,12.12
2023-05-01T07:15:27.538Z,12.15
2023-05-01T07:20:32.898Z,12.13
2023-05-01T07:25:46.125Z,12.09
2023-05-01T07:30:52.500Z,12.11
2023-05-01T07:35:58.733Z,12.14
2023-05-01T07:41:04.995Z,12.39
2023-05-01T07:46:13.023Z,12.28
2023-05-01T07:51:19.339Z,12.20
2023-05-01T07:56:27.526Z,12.31
2023-05-01T08:01:35.936Z,12.38
2023-05-01T08:06:42.923Z,12.52
2023-05-01T08:11:47.462Z,12.48
2023-05-01T08:16:56.762Z,12.45
2023-05-01T08:22:03.586Z,12.54
2023-05-01T08:27:09.552Z,12.47
2023-05-01T08:32:15.933Z,12.51
2023-05-01T08:37:21.708Z,12.62
2023-05-01T08:42:31.024Z,12.87
2023-05-01T08:47:39.407Z,12.81
2023-05-01T08:52:45.138Z,12.58
2023-05-01T08:57:50.199Z,12.84
2023-05-01T09:02:55.292Z,13.02
2023-05-01T09:08:02.579Z,12.99
2023-05-01T09:13:11.543Z,12.85
2023-05-01T09:18:16.592Z,12.84
2023-05-01T09:23:21.148Z,12.76
2023-05-01T09:28:57.938Z,12.87
2023-05-01T09:34:05.317Z,12.85
2023-05-01T09:39:23.676Z,12.72
2023-05-01T09:44:29.259Z,12.84
2023-05-01T09:49:49.134Z,12.95
2023-05-01T09:55:16.748Z,12.77
2023-05-01T10:00:23.276Z,13.18
2023-05-01T10:05:44.178Z,13.05
2023-05-01T10:11:06.504Z,12.74
2023-05-01T10:16:30.909Z,12.57
2023-05-01T10:21:36.704Z,12.79
2023-05-01T10:26:45.044Z,13.48
2023-05-01T10:31:51.931Z,13.84
2023-05-01T10:37:06.173Z,14.41
2023-05-01T10:42:15.079Z,14.44
2023-05-01T10:47:32.608Z,15.24
2023-05-01T10:53:12.750Z,15.89
2023-05-01T10:58:39.272Z,17.28
2023-05-01T11:03:45.515Z,16.93
2023-05-01T11:08:50.168Z,15.80
2023-05-01T11:14:11.841Z,15.21
2023-05-01T11:19:24.198Z,15.25
2023-05-01T11:24:36.730Z,15.24
2023-05-01T11:29:46.097Z,14.98
2023-05-01T11:34:52.508Z,15.09
2023-05-01T11:40:00.928Z,14.89
2023-05-01T11:45:13.240Z,14.40
2023-05-01T11:50:18.988Z,14.31
2023-05-01T11:55:35.809Z,14.19
2023-05-01T12:00:42.790Z,14.73
2023-05-01T12:05:50.609Z,14.42
2023-05-01T12:10:57.994Z,14.53
2023-05-01T12:16:04.834Z,14.77
2023-05-01T12:21:18.827Z,14.62
2023-05-01T12:26:29.580Z,14.45
2023-05-01T12:31:35.395Z,14.42
2023-05-01T12:36:40.734Z,13.95
2023-05-01T12:41:47.869Z,13.58
2023-05-01T12:47:10.766Z,13.85
2023-05-01T12:52:17.949Z,14.94
2023-05-01T12:57:24.241Z,15.02
2023-05-01T13:02:37.705Z,15.22
2023-05-01T13:07:51.076Z,15.07
2023-05-01T13:12:56.252Z,15.57
2023-05-01T13:18:05.808Z,15.57
2023-05-01T13:23:14.766Z,16.01
2023-05-01T13:28:21.445Z,15.67
2023-05-01T13:33:26.767Z,15.37
2023-05-01T13:38:36.000Z,15.21
2023-05-01T13:43:41.793Z,15.32
2023-05-01T13:48:50.110Z,15.98
2023-05-01T13:53:55.538Z,15.78
2023-05-01T13:59:03.731Z,17.25
2023-05-01T14:04:13.664Z,16.38
2023-05-01T14:09:19.352Z,16.16
2023-05-01T14:14:23.333Z,15.84
2023-05-01T14:19:27.869Z,15.87
2023-05-01T14:24:35.327Z,16.19
2023-05-01T14:29:46.147Z,15.80
2023-05-01T14:34:49.956Z,15.25
2023-05-01T14:39:53.973Z,15.11
2023-05-01T14:44:58.884Z,15.41
2023-05-01T14:50:03.117Z,15.19
2023-05-01T14:55:07.143Z,14.79
2023-05-01T15:00:12.678Z,14.61
2023-05-01T15:05:18.838Z,14.44
2023-05-01T15:10:26.525Z,14.22
2023-05-01T15:15:30.835Z,14.29
2023-05-01T15:20:35.813Z,14.32
2023-05-01T15:25:45.380Z,14.09
2023-05-01T15:30:54.521Z,14.14
2023-05-01T15:35:59.865Z,14.21
2023-05-01T15:41:05.327Z,14.07
2023-05-01T15:46:13.848Z,13.69
2023-05-01T15:51:18.406Z,13.56
2023-05-01T15:56:24.647Z,13.40
2023-05-01T16:01:37.392Z,13.28
2023-05-01T16:06:44.787Z,12.99
2023-05-01T16:11:53.756Z,12.96
2023-05-01T16:17:00.252Z,13.00
2023-05-01T16:22:07.450Z,12.91
2023-05-01T16:27:18.907Z,12.88
2023-05-01T16:32:24.836Z,12.90
2023-05-01T16:37:29.434Z,12.92
2023-05-01T16:42:36.912Z,12.93
2023-05-01T16:47:44.549Z,12.99
2023-05-01T16:52:50.257Z,12.91
2023-05-01T16:57:55.063Z,12.92
2023-05-01T17:03:00.361Z,12.94
2023-05-01T17:08:08.274Z,12.82
2023-05-01T17:13:16.776Z,12.74
2023-05-01T17:18:22.460Z,12.56
2023-05-01T17:23:29.928Z,12.61
2023-05-01T17:28:37.226Z,12.73
2023-05-01T17:33:42.921Z,12.75
2023-05-01T17:38:46.862Z,12.55
2023-05-01T17:43:51.524Z,12.48
2023-05-01T17:48:56.476Z,12.60
2023-05-01T17:54:03.267Z,12.56
2023-05-01T17:59:08.174Z,12.54
2023-05-01T18:04:13.057Z,12.45
2023-05-01T18:09:17.582Z,12.53
2023-05-01T18:14:22.134Z,12.38
2023-05-01T18:19:25.350Z,12.45
2023-05-01T18:24:30.063Z,12.40
2023-05-01T18:29:34.302Z,12.44
2023-05-01T18:34:38.899Z,12.35
2023-05-01T18:39:42.672Z,12.45
2023-05-01T18:44:47.276Z,12.32
2023-05-01T18:49:51.617Z,12.42
2023-05-01T18:54:55.250Z,12.35
2023-05-01T19:00:01.741Z,12.39
2023-05-01T19:05:10.817Z,12.35
2023-05-01T19:10:14.522Z,12.40
2023-05-01T19:15:18.941Z,12.29
2023-05-01T19:20:23.071Z,12.28
2023-05-01T19:25:27.387Z,12.39
2023-05-01T19:30:32.518Z,12.43
2023-05-01T19:35:40.422Z,12.40
2023-05-01T19:40:45.894Z,12.34
2023-05-01T19:45:51.559Z,12.40
2023-05-01T19:50:56.849Z,12.41
2023-05-01T19:56:01.144Z,12.35
2023-05-01T20:01:11.020Z,12.43
2023-05-01T20:06:15.431Z,12.42
2023-05-01T20:11:19.311Z,12.46
2023-05-01T20:16:23.740Z,12.45
2023-05-01T20:21:30.404Z,12.47
2023-05-01T20:26:34.648Z,12.58
2023-05-01T20:31:38.286Z,12.46
2023-05-01T20:36:43.617Z,12.41
2023-05-01T20:41:48.553Z,12.39
2023-05-01T20:46:53.512Z,12.42
2023-05-01T20:51:59.063Z,12.43
2023-05-01T20:57:04.328Z,12.41
2023-05-01T21:02:09.286Z,12.42
2023-05-01T21:07:13.896Z,12.39
2023-05-01T21:12:17.798Z,12.41
2023-05-01T21:17:23.765Z,12.43
2023-05-01T21:22:37.162Z,12.35
2023-05-01T21:27:43.993Z,12.40
2023-05-01T21:32:48.492Z,12.39
2023-05-01T21:37:52.746Z,12.40
2023-05-01T21:42:57.177Z,12.37
2023-05-01T21:48:02.606Z,12.39
2023-05-01T21:53:09.529Z,12.41
2023-05-01T21:58:15.402Z,12.53
2023-05-01T22:03:20.115Z,12.43
2023-05-01T22:08:23.906Z,12.34
2023-05-01T22:13:33.646Z,12.32
2023-05-01T22:18:37.665Z,12.31
2023-05-01T22:23:42.045Z,12.37
2023-05-01T22:28:46.266Z,12.33
2023-05-01T22:33:51.091Z,12.25
2023-05-01T22:38:55.255Z,12.28
2023-05-01T22:43:58.694Z,12.31
2023-05-01T22:49:04.598Z,12.22
2023-05-01T22:54:07.999Z,12.02
2023-05-01T22:59:13.099Z,11.83
2023-05-01T23:04:16.637Z,11.62
2023-05-01T23:09:20.908Z,11.46
2023-05-01T23:14:26.012Z,11.33
2023-05-01T23:19:29.932Z,11.21
2023-05-01T23:24:48.557Z,11.11
2023-05-01T23:29:55.257Z,10.99
2023-05-01T23:35:15.141Z,10.98
2023-05-01T23:40:19.175Z,11.04
2023-05-01T23:45:22.644Z,11.10
2023-05-01T23:50:28.567Z,11.07
2023-05-01T23:55:32.102Z,11.01
